createdAt,value
2019-03-04T00:00:40.216Z,990.64
2019-03-04T00:01:40.211Z,990.60
2019-03-04T00:02:40.194Z,990.57
2019-03-04T00:03:40.200Z,990.52
2019-03-04T00:04:40.176Z,990.54
2019-03-04T00:05:40.168Z,990.54
2019-03-04T00:06:40.150Z,990.45
2019-03-04T00:07:40.155Z,990.49
2019-03-04T00:08:40.142Z,990.39
2019-03-04T00:09:40.122Z,990.41
2019-03-04T00:10:40.105Z,990.53
2019-03-04T00:11:40.102Z,990.54
2019-03-04T00:12:40.086Z,990.56
2019-03-04T00:13:40.098Z,990.58
2019-03-04T00:14:40.087Z,990.53
2019-03-04T00:15:40.060Z,990.51
2019-03-04T00:16:40.050Z,990.51
2019-03-04T00:17:40.033Z,990.45
2019-03-04T00:18:40.030Z,990.38
2019-03-04T00:19:40.012Z,990.41
2019-03-04T00:20:39.996Z,990.42
2019-03-04T00:21:39.990Z,990.54
2019-03-04T00:22:39.974Z,990.43
2019-03-04T00:23:39.983Z,990.42
2019-03-04T00:24:39.957Z,990.48
2019-03-04T00:25:39.946Z,990.39
2019-03-04T00:26:39.930Z,990.47
2019-03-04T00:27:39.927Z,990.61
2019-03-04T00:28:39.923Z,990.63
2019-03-04T00:29:39.906Z,990.53
2019-03-04T00:30:39.903Z,990.52
2019-03-04T00:31:39.882Z,990.53
2019-03-04T00:32:39.864Z,990.55
2019-03-04T00:33:39.872Z,990.55
2019-03-04T00:34:39.847Z,990.42
2019-03-04T00:35:39.840Z,990.46
2019-03-04T00:36:39.826Z,990.38
2019-03-04T00:37:39.815Z,990.34
2019-03-04T00:38:39.813Z,990.36
2019-03-04T00:39:39.795Z,990.32
2019-03-04T00:40:39.780Z,990.26
2019-03-04T00:41:39.774Z,990.16
2019-03-04T00:42:39.756Z,990.13
2019-03-04T00:43:39.766Z,990.02
2019-03-04T00:44:39.737Z,990.13
2019-03-04T00:45:39.726Z,990.11
2019-03-04T00:46:39.711Z,990.03
2019-03-04T00:47:39.705Z,990.00
2019-03-04T00:48:39.690Z,990.07
2019-03-04T00:49:39.697Z,990.14
2019-03-04T00:50:39.666Z,990.11
2019-03-04T00:51:39.671Z,990.23
2019-03-04T00:52:39.644Z,990.22
2019-03-04T00:53:39.647Z,990.11
2019-03-04T00:54:39.636Z,990.16
2019-03-04T00:55:39.626Z,990.15
2019-03-04T00:56:39.602Z,990.16
2019-03-04T00:57:39.608Z,990.14
2019-03-04T00:58:39.584Z,990.15
2019-03-04T00:59:39.588Z,990.09
2019-03-04T01:00:39.559Z,990.00
2019-03-04T01:01:39.553Z,990.02
2019-03-04T01:02:39.537Z,989.97
2019-03-04T01:03:39.530Z,989.93
2019-03-04T01:04:39.527Z,989.97
2019-03-04T01:05:39.515Z,989.90
2019-03-04T01:06:39.491Z,989.99
2019-03-04T01:07:39.488Z,989.90
2019-03-04T01:08:39.473Z,989.81
2019-03-04T01:09:39.482Z,989.85
2019-03-04T01:10:39.448Z,989.76
2019-03-04T01:11:39.445Z,989.70
2019-03-04T01:12:39.426Z,989.71
2019-03-04T01:13:39.423Z,989.64
2019-03-04T01:14:39.418Z,989.59
2019-03-04T01:15:39.406Z,989.55
2019-03-04T01:16:39.391Z,989.52
2019-03-04T01:17:39.375Z,989.49
2019-03-04T01:18:39.360Z,989.44
2019-03-04T01:19:39.370Z,989.51
2019-03-04T01:20:40.484Z,989.54
2019-03-04T01:21:39.345Z,989.53
2019-03-04T01:22:39.323Z,989.46
2019-03-04T01:23:39.311Z,989.43
2019-03-04T01:24:39.309Z,989.40
2019-03-04T01:25:39.291Z,989.43
2019-03-04T01:26:39.274Z,989.39
2019-03-04T01:27:39.272Z,989.33
2019-03-04T01:28:39.252Z,989.26
2019-03-04T01:29:39.264Z,989.26
2019-03-04T01:30:39.230Z,989.26
2019-03-04T01:31:39.226Z,989.27
2019-03-04T01:32:39.208Z,989.21
2019-03-04T01:33:39.209Z,989.15
2019-03-04T01:34:39.206Z,989.13
2019-03-04T01:35:39.180Z,989.23
2019-03-04T01:36:39.164Z,989.24
2019-03-04T01:37:39.161Z,989.20
2019-03-04T01:38:39.145Z,989.06
2019-03-04T01:39:39.152Z,989.14
2019-03-04T01:40:39.124Z,989.10
2019-03-04T01:41:39.115Z,989.08
2019-03-04T01:42:39.101Z,989.05
2019-03-04T01:43:39.093Z,989.12
2019-03-04T01:44:39.096Z,989.08
2019-03-04T01:45:39.078Z,989.10
2019-03-04T01:46:39.062Z,989.02
2019-03-04T01:47:39.049Z,989.10
2019-03-04T01:48:39.035Z,989.00
2019-03-04T01:49:39.042Z,988.97
2019-03-04T01:50:39.015Z,989.02
2019-03-04T01:51:39.013Z,989.01
2019-03-04T01:52:38.991Z,988.93
2019-03-04T01:53:38.983Z,988.90
2019-03-04T01:54:38.973Z,988.83
2019-03-04T01:55:38.980Z,988.79
2019-03-04T01:56:38.951Z,988.75
2019-03-04T01:57:38.958Z,988.77
2019-03-04T01:58:38.928Z,988.63
2019-03-04T01:59:38.919Z,988.59
2019-03-04T02:00:38.921Z,988.56
2019-03-04T02:01:38.897Z,988.54
2019-03-04T02:02:38.884Z,988.47
2019-03-04T02:03:38.881Z,988.43
2019-03-04T02:04:38.862Z,988.38
2019-03-04T02:05:38.866Z,988.38
2019-03-04T02:06:38.840Z,988.33
2019-03-04T02:07:38.836Z,988.30
2019-03-04T02:08:38.821Z,988.28
2019-03-04T02:09:38.809Z,988.31
2019-03-04T02:10:38.808Z,988.35
2019-03-04T02:11:38.788Z,988.24
2019-03-04T02:12:38.773Z,988.18
2019-03-04T02:13:38.767Z,988.25
2019-03-04T02:14:38.758Z,988.27
2019-03-04T02:15:38.765Z,988.31
2019-03-04T02:16:38.728Z,988.24
2019-03-04T02:17:38.723Z,988.16
2019-03-04T02:18:38.760Z,988.14
2019-03-04T02:19:38.706Z,988.11
2019-03-04T02:20:38.704Z,988.16
2019-03-04T02:21:38.683Z,988.09
2019-03-04T02:22:38.666Z,988.08
2019-03-04T02:23:38.659Z,988.13
2019-03-04T02:24:38.645Z,988.01
2019-03-04T02:25:38.651Z,987.96
2019-03-04T02:26:38.621Z,988.00
2019-03-04T02:27:38.615Z,988.02
2019-03-04T02:28:38.601Z,988.01
2019-03-04T02:29:38.593Z,987.94
2019-03-04T02:30:38.593Z,987.97
2019-03-04T02:31:38.578Z,987.86
2019-03-04T02:32:38.563Z,987.87
2019-03-04T02:33:38.550Z,987.79
2019-03-04T02:34:38.540Z,987.73
2019-03-04T02:35:38.543Z,987.67
2019-03-04T02:36:38.512Z,987.66
2019-03-04T02:37:38.506Z,987.62
2019-03-04T02:38:38.491Z,987.66
2019-03-04T02:39:38.497Z,987.63
2019-03-04T02:40:38.482Z,987.61
2019-03-04T02:41:38.463Z,987.59
2019-03-04T02:42:38.470Z,987.54
2019-03-04T02:43:38.451Z,987.45
2019-03-04T02:44:38.431Z,987.42
2019-03-04T02:45:38.441Z,987.36
2019-03-04T02:46:38.406Z,987.29
2019-03-04T02:47:38.401Z,987.24
2019-03-04T02:48:38.384Z,987.22
2019-03-04T02:49:38.390Z,987.22
2019-03-04T02:50:38.380Z,987.19
2019-03-04T02:51:38.362Z,987.14
2019-03-04T02:52:38.341Z,987.11
2019-03-04T02:53:38.335Z,986.97
2019-03-04T02:54:38.322Z,987.08
2019-03-04T02:55:38.323Z,987.05
2019-03-04T02:56:38.298Z,987.13
2019-03-04T02:57:38.303Z,987.02
2019-03-04T02:58:38.279Z,986.97
2019-03-04T02:59:38.274Z,986.98
2019-03-04T03:00:38.264Z,986.95
2019-03-04T03:01:38.260Z,986.93
2019-03-04T03:02:38.237Z,987.02
2019-03-04T03:03:38.230Z,987.07
2019-03-04T03:04:38.220Z,986.99
2019-03-04T03:05:38.224Z,986.95
2019-03-04T03:06:38.192Z,986.96
2019-03-04T03:07:38.185Z,986.96
2019-03-04T03:08:38.167Z,986.91
2019-03-04T03:09:38.165Z,986.87
2019-03-04T03:10:38.157Z,986.93
2019-03-04T03:11:38.141Z,986.90
2019-03-04T03:12:38.134Z,986.93
2019-03-04T03:13:38.128Z,986.87
2019-03-04T03:14:38.102Z,986.80
2019-03-04T03:15:38.106Z,986.83
2019-03-04T03:16:38.082Z,986.75
2019-03-04T03:17:38.106Z,986.68
2019-03-04T03:18:38.060Z,986.73
2019-03-04T03:19:38.053Z,986.75
2019-03-04T03:20:38.067Z,986.68
2019-03-04T03:21:38.028Z,986.70
2019-03-04T03:22:38.026Z,986.27
2019-03-04T03:23:38.011Z,986.16
2019-03-04T03:24:37.991Z,986.25
2019-03-04T03:25:38.001Z,986.33
2019-03-04T03:26:37.969Z,986.19
2019-03-04T03:27:37.965Z,986.13
2019-03-04T03:28:37.957Z,986.12
2019-03-04T03:29:37.945Z,986.08
2019-03-04T03:30:37.963Z,986.12
2019-03-04T03:31:37.921Z,986.20
2019-03-04T03:32:37.912Z,986.27
2019-03-04T03:33:37.909Z,986.14
2019-03-04T03:34:37.884Z,986.09
2019-03-04T03:35:37.878Z,986.05
2019-03-04T03:36:37.883Z,986.04
2019-03-04T03:37:37.858Z,986.10
2019-03-04T03:38:37.840Z,986.01
2019-03-04T03:39:37.839Z,985.97
2019-03-04T03:40:37.817Z,985.95
2019-03-04T03:41:37.830Z,985.93
2019-03-04T03:42:37.807Z,985.85
2019-03-04T03:43:37.869Z,985.89
2019-03-04T03:44:37.773Z,985.81
2019-03-04T03:45:37.772Z,985.94
2019-03-04T03:46:37.782Z,985.75
2019-03-04T03:47:37.763Z,985.76
2019-03-04T03:48:37.730Z,985.82
2019-03-04T03:49:37.729Z,985.80
2019-03-04T03:50:37.711Z,985.79
2019-03-04T03:51:37.720Z,985.70
2019-03-04T03:52:37.692Z,985.65
2019-03-04T03:53:37.693Z,985.61
2019-03-04T03:54:37.677Z,985.63
2019-03-04T03:55:37.659Z,985.61
2019-03-04T03:56:37.673Z,985.60
2019-03-04T03:57:37.636Z,985.55
2019-03-04T03:58:37.640Z,985.51
2019-03-04T03:59:37.619Z,985.37
2019-03-04T04:00:37.619Z,985.34
2019-03-04T04:01:37.610Z,985.29
2019-03-04T04:02:37.577Z,985.37
2019-03-04T04:03:37.570Z,985.30
2019-03-04T04:04:37.562Z,985.23
2019-03-04T04:05:37.561Z,985.21
2019-03-04T04:06:37.570Z,985.21
2019-03-04T04:07:37.529Z,985.13
2019-03-04T04:08:37.520Z,985.16
2019-03-04T04:09:37.513Z,985.05
2019-03-04T04:10:37.496Z,985.04
2019-03-04T04:11:37.507Z,984.99
2019-03-04T04:12:37.468Z,985.04
2019-03-04T04:13:37.467Z,985.08
2019-03-04T04:14:37.449Z,985.08
2019-03-04T04:15:37.445Z,985.06
2019-03-04T04:16:37.440Z,985.01
2019-03-04T04:17:37.423Z,985.01
2019-03-04T04:18:37.403Z,984.98
2019-03-04T04:19:37.414Z,985.06
2019-03-04T04:20:37.385Z,985.01
2019-03-04T04:21:37.407Z,985.02
2019-03-04T04:22:37.365Z,985.10
2019-03-04T04:23:37.360Z,985.02
2019-03-04T04:24:37.337Z,984.99
2019-03-04T04:25:37.330Z,984.91
2019-03-04T04:26:37.350Z,984.96
2019-03-04T04:27:37.313Z,984.74
2019-03-04T04:28:37.297Z,984.80
2019-03-04T04:29:37.287Z,984.80
2019-03-04T04:30:37.278Z,984.82
2019-03-04T04:31:37.295Z,984.70
2019-03-04T04:32:37.270Z,984.75
2019-03-04T04:33:37.248Z,984.65
2019-03-04T04:34:37.233Z,984.62
2019-03-04T04:35:37.226Z,984.56
2019-03-04T04:36:37.221Z,984.55
2019-03-04T04:37:37.205Z,984.47
2019-03-04T04:38:37.186Z,984.44
2019-03-04T04:39:37.182Z,984.40
2019-03-04T04:40:37.165Z,984.33
2019-03-04T04:41:37.172Z,984.28
2019-03-04T04:42:37.142Z,984.17
2019-03-04T04:43:37.135Z,984.15
2019-03-04T04:44:37.123Z,984.21
2019-03-04T04:45:37.119Z,984.14
2019-03-04T04:46:37.111Z,984.08
2019-03-04T04:47:37.091Z,984.06
2019-03-04T04:48:37.085Z,984.02
2019-03-04T04:49:37.069Z,984.02
2019-03-04T04:50:37.054Z,983.97
2019-03-04T04:51:37.075Z,983.92
2019-03-04T04:52:37.033Z,983.91
2019-03-04T04:53:37.025Z,983.79
2019-03-04T04:54:37.010Z,983.74
2019-03-04T04:55:37.005Z,983.60
2019-03-04T04:56:36.992Z,983.55
2019-03-04T04:57:36.999Z,983.47
2019-03-04T04:58:36.968Z,983.40
2019-03-04T04:59:36.961Z,983.31
2019-03-04T05:00:36.953Z,983.32
2019-03-04T05:01:36.954Z,983.31
2019-03-04T05:02:36.951Z,983.15
2019-03-04T05:03:36.919Z,983.17
2019-03-04T05:04:36.903Z,983.14
2019-03-04T05:05:36.896Z,983.12
2019-03-04T05:06:36.885Z,983.00
2019-03-04T05:07:36.902Z,982.89
2019-03-04T05:08:36.861Z,982.91
2019-03-04T05:09:36.853Z,983.03
2019-03-04T05:10:36.837Z,982.91
2019-03-04T05:11:36.835Z,982.87
2019-03-04T05:12:36.834Z,982.84
2019-03-04T05:13:36.815Z,982.85
2019-03-04T05:14:36.793Z,982.87
2019-03-04T05:15:36.787Z,982.99
2019-03-04T05:16:36.778Z,982.94
2019-03-04T05:17:36.790Z,982.85
2019-03-04T05:18:36.752Z,982.70
2019-03-04T05:19:36.748Z,982.76
2019-03-04T05:20:36.728Z,982.83
2019-03-04T05:21:36.724Z,982.79
2019-03-04T05:22:36.721Z,982.60
2019-03-04T05:23:36.771Z,982.71
2019-03-04T05:24:36.687Z,982.78
2019-03-04T05:25:36.677Z,982.74
2019-03-04T05:26:36.662Z,982.82
2019-03-04T05:27:36.669Z,982.87
2019-03-04T05:28:36.641Z,982.74
2019-03-04T05:29:36.637Z,982.71
2019-03-04T05:30:36.619Z,982.72
2019-03-04T05:31:36.615Z,982.76
2019-03-04T05:32:36.619Z,982.65
2019-03-04T05:33:36.590Z,982.66
2019-03-04T05:34:36.575Z,982.70
2019-03-04T05:35:36.569Z,982.76
2019-03-04T05:36:36.556Z,982.60
2019-03-04T05:37:36.562Z,982.61
2019-03-04T05:38:36.535Z,982.52
2019-03-04T05:39:36.525Z,982.52
2019-03-04T05:40:36.511Z,982.46
2019-03-04T05:41:36.510Z,982.39
2019-03-04T05:42:37.005Z,982.38
2019-03-04T05:43:36.490Z,982.42
2019-03-04T05:44:36.465Z,982.30
2019-03-04T05:45:36.460Z,982.30
2019-03-04T05:46:36.446Z,982.31
2019-03-04T05:47:36.459Z,982.27
2019-03-04T05:48:36.428Z,982.18
2019-03-04T05:49:36.419Z,982.31
2019-03-04T05:50:36.403Z,982.10
2019-03-04T05:51:36.398Z,982.23
2019-03-04T05:52:36.395Z,982.21
2019-03-04T05:53:36.371Z,982.14
2019-03-04T05:54:36.361Z,982.16
2019-03-04T05:55:36.352Z,982.17
2019-03-04T05:56:36.333Z,982.05
2019-03-04T05:57:36.342Z,982.04
2019-03-04T05:58:36.315Z,982.09
2019-03-04T05:59:36.307Z,981.93
2019-03-04T06:00:36.298Z,981.87
2019-03-04T06:01:36.288Z,981.75
2019-03-04T06:02:36.284Z,981.80
2019-03-04T06:03:36.263Z,981.78
2019-03-04T06:04:36.252Z,981.81
2019-03-04T06:05:36.248Z,981.84
2019-03-04T06:06:36.224Z,981.87
2019-03-04T06:07:36.269Z,981.80
2019-03-04T06:08:36.202Z,981.68
2019-03-04T06:09:36.198Z,981.69
2019-03-04T06:10:36.181Z,981.65
2019-03-04T06:11:36.186Z,981.68
2019-03-04T06:12:36.160Z,981.65
2019-03-04T06:13:36.167Z,981.55
2019-03-04T06:14:36.136Z,981.56
2019-03-04T06:15:36.133Z,981.53
2019-03-04T06:16:36.117Z,981.59
2019-03-04T06:17:36.115Z,981.54
2019-03-04T06:18:36.116Z,981.49
2019-03-04T06:19:36.088Z,981.56
2019-03-04T06:20:36.072Z,981.61
2019-03-04T06:21:36.068Z,981.50
2019-03-04T06:22:36.050Z,981.50
2019-03-04T06:23:36.057Z,981.55
2019-03-04T06:24:36.030Z,981.51
2019-03-04T06:25:36.023Z,981.40
2019-03-04T06:26:36.006Z,981.34
2019-03-04T06:27:36.000Z,981.36
2019-03-04T06:28:36.001Z,981.37
2019-03-04T06:29:35.980Z,981.36
2019-03-04T06:30:35.969Z,981.39
2019-03-04T06:31:35.960Z,981.38
2019-03-04T06:32:35.942Z,981.32
2019-03-04T06:33:35.956Z,981.14
2019-03-04T06:34:35.923Z,981.27
2019-03-04T06:35:35.919Z,981.18
2019-03-04T06:36:35.898Z,981.11
2019-03-04T06:37:35.893Z,981.01
2019-03-04T06:38:35.894Z,981.02
2019-03-04T06:39:35.872Z,981.08
2019-03-04T06:40:35.862Z,981.07
2019-03-04T06:41:35.852Z,981.15
2019-03-04T06:42:35.834Z,981.12
2019-03-04T06:43:35.843Z,980.98
2019-03-04T06:44:35.813Z,981.01
2019-03-04T06:45:35.805Z,980.86
2019-03-04T06:46:35.837Z,981.02
2019-03-04T06:47:35.813Z,980.94
2019-03-04T06:48:35.783Z,980.95
2019-03-04T06:49:35.764Z,980.78
2019-03-04T06:50:35.751Z,980.65
2019-03-04T06:51:35.741Z,980.82
2019-03-04T06:52:35.731Z,980.77
2019-03-04T06:53:35.738Z,980.76
2019-03-04T06:54:35.773Z,980.74
2019-03-04T06:55:35.695Z,980.70
2019-03-04T06:56:35.681Z,980.61
2019-03-04T06:57:35.681Z,980.62
2019-03-04T06:58:35.674Z,980.58
2019-03-04T06:59:35.653Z,980.60
2019-03-04T07:00:35.641Z,980.66
2019-03-04T07:01:35.639Z,980.77
2019-03-04T07:02:35.620Z,980.82
2019-03-04T07:03:35.623Z,980.73
2019-03-04T07:04:35.595Z,980.84
2019-03-04T07:05:35.586Z,980.97
2019-03-04T07:06:35.571Z,980.85
2019-03-04T07:07:35.563Z,980.85
2019-03-04T07:08:35.563Z,981.00
2019-03-04T07:09:35.546Z,980.85
2019-03-04T07:10:35.529Z,980.85
2019-03-04T07:11:35.522Z,981.00
2019-03-04T07:12:35.506Z,980.80
2019-03-04T07:13:35.516Z,980.97
2019-03-04T07:14:35.483Z,980.96
2019-03-04T07:15:35.476Z,980.95
2019-03-04T07:16:35.460Z,980.95
2019-03-04T07:17:35.457Z,980.96
2019-03-04T07:18:35.456Z,980.97
2019-03-04T07:19:35.485Z,980.93
2019-03-04T07:20:35.419Z,980.77
2019-03-04T07:21:35.416Z,980.91
2019-03-04T07:22:35.392Z,980.97
2019-03-04T07:23:35.402Z,980.95
2019-03-04T07:24:35.375Z,980.94
2019-03-04T07:25:35.363Z,980.87
2019-03-04T07:26:35.356Z,980.97
2019-03-04T07:27:35.394Z,980.91
2019-03-04T07:28:35.349Z,980.90
2019-03-04T07:29:35.318Z,980.91
2019-03-04T07:30:35.304Z,980.87
2019-03-04T07:31:35.299Z,980.88
2019-03-04T07:32:35.287Z,980.83
2019-03-04T07:33:35.273Z,980.92
2019-03-04T07:34:35.274Z,980.94
2019-03-04T07:35:35.260Z,980.91
2019-03-04T07:36:35.239Z,980.94
2019-03-04T07:37:35.236Z,980.95
2019-03-04T07:38:35.229Z,980.98
2019-03-04T07:39:35.220Z,981.02
2019-03-04T07:40:35.189Z,981.20
2019-03-04T07:41:35.184Z,981.25
2019-03-04T07:42:35.167Z,981.31
2019-03-04T07:43:35.161Z,981.31
2019-03-04T07:44:35.167Z,981.25
2019-03-04T07:45:35.138Z,981.26
2019-03-04T07:46:35.123Z,981.21
2019-03-04T07:47:35.121Z,981.14
2019-03-04T07:48:35.994Z,981.16
2019-03-04T07:49:35.107Z,981.21
2019-03-04T07:50:35.077Z,981.25
2019-03-04T07:51:35.071Z,981.28
2019-03-04T07:52:35.055Z,981.33
2019-03-04T07:53:35.048Z,981.33
2019-03-04T07:54:35.049Z,981.32
2019-03-04T07:55:35.031Z,981.14
2019-03-04T07:56:35.010Z,981.07
2019-03-04T07:57:35.003Z,981.15
2019-03-04T07:58:34.989Z,981.28
2019-03-04T07:59:35.002Z,981.37
2019-03-04T08:00:34.965Z,981.24
2019-03-04T08:01:34.960Z,981.40
2019-03-04T08:02:34.942Z,981.17
2019-03-04T08:03:34.936Z,981.32
2019-03-04T08:04:34.934Z,981.38
2019-03-04T08:05:34.912Z,981.92
2019-03-04T08:06:34.903Z,981.80
2019-03-04T08:07:34.891Z,982.17
2019-03-04T08:08:34.878Z,982.57
2019-03-04T08:09:34.882Z,982.58
2019-03-04T08:10:34.854Z,982.67
2019-03-04T08:11:34.849Z,982.49
2019-03-04T08:12:34.834Z,982.58
2019-03-04T08:13:34.825Z,982.05
2019-03-04T08:14:34.823Z,982.15
2019-03-04T08:15:34.804Z,982.42
2019-03-04T08:16:36.210Z,982.18
2019-03-04T08:17:34.789Z,982.43
2019-03-04T08:18:34.766Z,982.40
2019-03-04T08:19:34.784Z,982.54
2019-03-04T08:20:34.748Z,982.55
2019-03-04T08:21:34.738Z,982.59
2019-03-04T08:22:34.754Z,982.51
2019-03-04T08:23:34.730Z,982.38
2019-03-04T08:24:34.721Z,982.53
2019-03-04T08:25:34.700Z,982.62
2019-03-04T08:26:34.695Z,982.47
2019-03-04T08:27:34.672Z,982.54
2019-03-04T08:28:34.657Z,982.57
2019-03-04T08:29:34.685Z,982.58
2019-03-04T08:30:34.636Z,982.59
2019-03-04T08:31:34.634Z,982.47
2019-03-04T08:32:34.651Z,982.54
2019-03-04T08:33:35.644Z,982.45
2019-03-04T08:34:34.605Z,982.43
2019-03-04T08:35:34.601Z,982.49
2019-03-04T08:36:34.605Z,982.18
2019-03-04T08:37:34.569Z,982.54
2019-03-04T08:38:34.549Z,982.44
2019-03-04T08:39:34.560Z,982.50
2019-03-04T08:40:34.542Z,982.51
2019-03-04T08:41:34.531Z,982.39
2019-03-04T08:42:34.537Z,982.45
2019-03-04T08:43:34.613Z,982.63
2019-03-04T08:44:34.488Z,982.44
2019-03-04T08:45:34.505Z,982.56
2019-03-04T08:46:34.489Z,982.67
2019-03-04T08:47:34.463Z,982.45
2019-03-04T08:48:34.443Z,982.42
2019-03-04T08:49:34.434Z,982.27
2019-03-04T08:50:34.484Z,982.28
2019-03-04T08:51:34.412Z,982.35
2019-03-04T08:52:34.401Z,982.17
2019-03-04T08:53:34.390Z,982.21
2019-03-04T08:54:34.397Z,982.12
2019-03-04T08:55:34.451Z,982.21
2019-03-04T08:56:34.376Z,982.23
2019-03-04T08:57:34.348Z,982.32
2019-03-04T08:58:34.522Z,982.26
2019-03-04T08:59:34.327Z,982.17
2019-03-04T09:00:34.348Z,982.32
2019-03-04T09:01:34.319Z,982.18
2019-03-04T09:02:34.299Z,982.15
2019-03-04T09:03:34.320Z,982.37
2019-03-04T09:04:34.271Z,982.21
2019-03-04T09:05:34.366Z,982.20
2019-03-04T09:06:34.245Z,982.04
2019-03-04T09:07:34.238Z,982.19
2019-03-04T09:08:34.223Z,982.06
2019-03-04T09:09:34.285Z,982.16
2019-03-04T09:10:34.217Z,982.17
2019-03-04T09:11:34.195Z,982.25
2019-03-04T09:12:35.916Z,981.90
2019-03-04T09:13:34.260Z,982.00
2019-03-04T09:14:34.158Z,982.04
2019-03-04T09:15:39.630Z,981.95
2019-03-04T09:16:34.137Z,982.11
2019-03-04T09:17:57.232Z,982.02
2019-03-04T09:18:34.115Z,982.05
2019-03-04T09:19:35.121Z,982.28
2019-03-04T09:20:34.105Z,982.11
2019-03-04T09:21:34.108Z,982.06
2019-03-04T09:22:34.071Z,982.22
2019-03-04T09:23:34.127Z,982.04
2019-03-04T09:24:34.048Z,982.11
2019-03-04T09:25:34.065Z,981.97
2019-03-04T09:26:34.026Z,981.97
2019-03-04T09:27:34.047Z,982.07
2019-03-04T09:28:34.002Z,982.06
2019-03-04T09:29:34.061Z,982.01
2019-03-04T09:30:34.016Z,981.95
2019-03-04T09:31:34.078Z,981.91
2019-03-04T09:32:33.962Z,981.84
2019-03-04T09:33:33.987Z,981.71
2019-03-04T09:34:33.936Z,981.77
2019-03-04T09:35:34.032Z,981.69
2019-03-04T09:36:33.914Z,981.91
2019-03-04T09:37:34.014Z,981.82
2019-03-04T09:38:33.894Z,981.80
2019-03-04T09:39:33.934Z,981.75
2019-03-04T09:40:33.887Z,981.74
2019-03-04T09:41:33.939Z,981.46
2019-03-04T09:42:33.849Z,982.11
2019-03-04T09:43:33.854Z,981.68
2019-03-04T09:44:33.828Z,981.89
2019-03-04T09:45:38.713Z,981.67
2019-03-04T09:46:34.824Z,981.93
2019-03-04T09:47:33.882Z,981.55
2019-03-04T09:48:33.786Z,981.79
2019-03-04T09:49:33.791Z,981.70
2019-03-04T09:50:33.763Z,981.54
2019-03-04T09:51:33.835Z,981.79
2019-03-04T09:52:33.745Z,981.82
2019-03-04T09:53:39.582Z,981.72
2019-03-04T09:54:34.715Z,981.76
2019-03-04T09:55:33.732Z,981.75
2019-03-04T09:56:33.717Z,981.80
2019-03-04T09:57:33.741Z,981.88
2019-03-04T09:58:33.676Z,981.59
2019-03-04T09:59:33.755Z,981.77
2019-03-04T10:00:33.702Z,981.78
2019-03-04T10:01:35.747Z,981.62
2019-03-04T10:02:33.629Z,981.66
2019-03-04T10:03:48.632Z,981.71
2019-03-04T10:04:33.609Z,981.65
2019-03-04T10:05:34.616Z,981.60
2019-03-04T10:06:33.606Z,981.63
2019-03-04T10:07:33.604Z,981.69
2019-03-04T10:08:33.563Z,981.75
2019-03-04T10:09:34.016Z,981.88
2019-03-04T10:10:34.009Z,981.67
2019-03-04T10:11:33.562Z,981.65
2019-03-04T10:12:33.520Z,981.49
2019-03-04T10:13:33.544Z,981.42
2019-03-04T10:14:33.496Z,981.47
2019-03-04T10:15:33.559Z,981.24
2019-03-04T10:16:33.491Z,981.40
2019-03-04T10:17:33.571Z,981.30
2019-03-04T10:18:33.457Z,981.59
2019-03-04T10:19:33.483Z,981.54
2019-03-04T10:20:33.434Z,981.33
2019-03-04T10:21:33.528Z,981.37
2019-03-04T10:22:33.410Z,981.63
2019-03-04T10:23:33.404Z,981.31
2019-03-04T10:24:33.389Z,981.37
2019-03-04T10:25:33.421Z,981.26
2019-03-04T10:26:33.382Z,981.26
2019-03-04T10:27:33.436Z,981.37
2019-03-04T10:28:33.345Z,981.36
2019-03-04T10:29:33.347Z,981.25
2019-03-04T10:30:33.327Z,981.16
2019-03-04T10:31:33.395Z,981.33
2019-03-04T10:32:33.300Z,981.31
2019-03-04T10:33:33.373Z,981.24
2019-03-04T10:34:33.278Z,981.41
2019-03-04T10:35:33.286Z,981.33
2019-03-04T10:36:33.291Z,981.30
2019-03-04T10:37:33.305Z,981.28
2019-03-04T10:38:33.234Z,981.43
2019-03-04T10:39:33.312Z,981.18
2019-03-04T10:40:33.211Z,980.93
2019-03-04T10:41:33.224Z,981.26
2019-03-04T10:42:33.205Z,981.37
2019-03-04T10:43:33.291Z,981.12
2019-03-04T10:44:37.578Z,981.44
2019-03-04T10:45:33.251Z,981.35
2019-03-04T10:46:33.148Z,981.47
2019-03-04T10:47:47.633Z,981.45
2019-03-04T10:48:33.124Z,981.63
2019-03-04T10:49:33.180Z,981.68
2019-03-04T10:50:33.106Z,981.60
2019-03-04T10:51:34.113Z,981.71
2019-03-04T10:52:33.095Z,981.95
2019-03-04T10:53:33.102Z,981.92
2019-03-04T10:54:33.058Z,982.00
2019-03-04T10:55:41.677Z,982.13
2019-03-04T10:56:34.035Z,982.25
2019-03-04T10:57:33.068Z,981.98
2019-03-04T10:58:33.025Z,982.01
2019-03-04T10:59:33.058Z,982.26
2019-03-04T11:00:33.025Z,982.42
2019-03-04T11:01:33.063Z,982.33
2019-03-04T11:02:32.989Z,982.43
2019-03-04T11:03:33.086Z,982.47
2019-03-04T11:04:32.957Z,982.40
2019-03-04T11:05:32.979Z,982.74
2019-03-04T11:06:32.928Z,982.56
2019-03-04T11:07:33.030Z,982.54
2019-03-04T11:08:32.909Z,982.64
2019-03-04T11:09:33.052Z,982.39
2019-03-04T11:10:32.891Z,982.65
2019-03-04T11:11:32.920Z,982.64
2019-03-04T11:12:32.897Z,982.55
2019-03-04T11:13:32.931Z,982.72
2019-03-04T11:14:32.840Z,982.80
2019-03-04T11:15:32.849Z,982.72
2019-03-04T11:16:32.824Z,982.69
2019-03-04T11:17:32.906Z,982.65
2019-03-04T11:18:32.797Z,982.79
2019-03-04T11:19:32.870Z,982.75
2019-03-04T11:20:32.778Z,982.67
2019-03-04T11:21:32.782Z,982.78
2019-03-04T11:22:32.765Z,982.87
2019-03-04T11:23:32.797Z,982.80
2019-03-04T11:24:32.734Z,982.89
2019-03-04T11:25:32.813Z,982.85
2019-03-04T11:26:32.713Z,982.86
2019-03-04T11:27:32.756Z,982.78
2019-03-04T11:28:32.696Z,982.71
2019-03-04T11:29:32.747Z,982.85
2019-03-04T11:30:32.668Z,982.86
2019-03-04T11:31:32.750Z,982.71
2019-03-04T11:32:32.663Z,982.87
2019-03-04T11:33:39.630Z,982.86
2019-03-04T11:34:32.644Z,982.93
2019-03-04T11:35:39.642Z,982.80
2019-03-04T11:36:32.608Z,982.92
2019-03-04T11:37:33.642Z,982.95
2019-03-04T11:38:32.595Z,982.86
2019-03-04T11:39:32.597Z,982.98
2019-03-04T11:40:32.568Z,983.03
2019-03-04T11:41:32.620Z,982.95
2019-03-04T11:42:32.622Z,982.93
2019-03-04T11:43:32.626Z,982.92
2019-03-04T11:44:32.523Z,983.04
2019-03-04T11:45:32.538Z,983.06
2019-03-04T11:46:32.494Z,983.06
2019-03-04T11:47:32.587Z,983.04
2019-03-04T11:48:32.475Z,983.26
2019-03-04T11:49:32.569Z,983.06
2019-03-04T11:50:32.455Z,983.05
2019-03-04T11:51:32.479Z,983.01
2019-03-04T11:52:32.432Z,982.95
2019-03-04T11:53:32.529Z,982.86
2019-03-04T11:54:32.417Z,982.83
2019-03-04T11:55:32.505Z,983.05
2019-03-04T11:56:32.391Z,983.03
2019-03-04T11:57:32.419Z,982.89
2019-03-04T11:58:32.399Z,983.04
2019-03-04T11:59:32.430Z,983.25
2019-03-04T12:00:32.343Z,983.10
2019-03-04T12:01:32.465Z,983.31
2019-03-04T12:02:39.026Z,983.33
2019-03-04T12:03:33.418Z,983.30
2019-03-04T12:04:32.310Z,983.34
2019-03-04T12:05:32.367Z,983.20
2019-03-04T12:06:32.277Z,983.24
2019-03-04T12:07:32.279Z,983.36
2019-03-04T12:08:32.269Z,983.34
2019-03-04T12:09:32.296Z,983.37
2019-03-04T12:10:32.236Z,983.33
2019-03-04T12:11:38.133Z,983.32
2019-03-04T12:12:33.209Z,983.37
2019-03-04T12:13:32.256Z,983.39
2019-03-04T12:14:32.210Z,983.24
2019-03-04T12:15:32.235Z,983.31
2019-03-04T12:16:32.172Z,983.29
2019-03-04T12:17:32.255Z,983.34
2019-03-04T12:18:32.163Z,983.31
2019-03-04T12:19:35.480Z,983.33
2019-03-04T12:20:32.133Z,983.61
2019-03-04T12:21:40.672Z,983.24
2019-03-04T12:22:32.101Z,983.28
2019-03-04T12:23:32.125Z,983.13
2019-03-04T12:24:32.082Z,983.38
2019-03-04T12:25:32.097Z,983.47
2019-03-04T12:26:32.062Z,983.33
2019-03-04T12:27:32.110Z,983.65
2019-03-04T12:28:32.054Z,983.65